createdAt,value
2019-04-21T00:00:37.361Z,8.03
2019-04-21T00:03:15.162Z,9.43
2019-04-21T00:05:58.638Z,10.53
2019-04-21T00:11:05.994Z,11.77
2019-04-21T00:13:31.316Z,7.93
2019-04-21T00:15:48.828Z,8.07
2019-04-21T00:18:46.465Z,12.00
2019-04-21T00:21:16.223Z,8.90
2019-04-21T00:23:58.472Z,8.80
2019-04-21T00:26:31.724Z,8.93
2019-04-21T00:29:03.726Z,10.33
2019-04-21T00:31:28.623Z,9.17
2019-04-21T00:33:47.745Z,7.57
2019-04-21T00:36:22.659Z,7.83
2019-04-21T00:39:14.353Z,7.17
2019-04-21T00:41:36.724Z,7.17
2019-04-21T00:44:00.728Z,6.40
2019-04-21T00:46:37.245Z,10.00
2019-04-21T00:49:05.934Z,8.63
2019-04-21T00:51:54.122Z,10.60
2019-04-21T00:54:24.852Z,9.23
2019-04-21T00:56:58.704Z,11.13
2019-04-21T00:59:25.927Z,8.83
2019-04-21T01:01:55.599Z,9.47
2019-04-21T01:04:33.319Z,9.73
2019-04-21T01:06:54.425Z,8.80
2019-04-21T01:09:27.852Z,8.00
2019-04-21T01:12:01.296Z,7.93
2019-04-21T01:14:43.137Z,8.27
2019-04-21T01:17:05.013Z,9.67
2019-04-21T01:19:33.466Z,10.13
2019-04-21T01:21:46.425Z,8.13
2019-04-21T01:24:22.657Z,7.57
2019-04-21T01:26:59.583Z,7.90
2019-04-21T01:29:44.133Z,7.43
2019-04-21T01:32:12.882Z,9.00
2019-04-21T01:34:40.434Z,9.60
2019-04-21T01:37:04.094Z,9.17
2019-04-21T01:39:51.480Z,5.63
2019-04-21T01:42:15.898Z,8.00
2019-04-21T01:44:46.262Z,8.40
2019-04-21T01:47:13.134Z,9.33
2019-04-21T01:49:36.964Z,7.07
2019-04-21T01:52:24.066Z,8.70
2019-04-21T01:55:00.201Z,8.07
2019-04-21T01:57:52.609Z,8.33
2019-04-21T02:00:29.938Z,6.07
2019-04-21T02:03:09.758Z,7.57
2019-04-21T02:05:42.089Z,10.80
2019-04-21T02:08:01.136Z,7.97
2019-04-21T02:10:40.058Z,7.17
2019-04-21T02:13:03.558Z,7.27
2019-04-21T02:15:46.079Z,6.27
2019-04-21T02:18:08.952Z,8.30
2019-04-21T02:20:32.743Z,10.73
2019-04-21T02:23:26.388Z,8.00
2019-04-21T02:25:44.647Z,9.70
2019-04-21T02:28:20.789Z,10.07
2019-04-21T02:33:38.203Z,9.47
2019-04-21T02:38:53.018Z,9.27
2019-04-21T02:43:25.585Z,10.73
2019-04-21T02:46:04.326Z,5.93
2019-04-21T02:48:43.467Z,13.50
2019-04-21T02:51:03.981Z,19.03
2019-04-21T02:56:09.792Z,27.70
2019-04-21T03:01:50.350Z,26.73
2019-04-21T03:07:13.255Z,39.57
2019-04-21T03:09:41.018Z,26.30
2019-04-21T03:12:22.184Z,27.83
2019-04-21T03:14:58.571Z,25.73
2019-04-21T03:17:21.770Z,21.27
2019-04-21T03:19:51.366Z,26.10
2019-04-21T03:22:20.873Z,25.83
2019-04-21T03:27:30.798Z,26.73
2019-04-21T03:29:55.130Z,24.60
2019-04-21T03:39:59.313Z,31.10
2019-04-21T03:42:33.823Z,29.27
2019-04-21T03:45:03.652Z,28.57
2019-04-21T03:47:34.542Z,19.23
2019-04-21T03:50:27.351Z,17.10
2019-04-21T03:52:50.432Z,15.63
2019-04-21T03:58:16.918Z,15.03
2019-04-21T04:01:08.273Z,13.77
2019-04-21T04:07:04.046Z,8.87
2019-04-21T04:09:33.144Z,8.77
2019-04-21T04:11:50.865Z,10.00
2019-04-21T04:14:26.783Z,8.27
2019-04-21T04:17:11.863Z,10.53
2019-04-21T04:19:26.798Z,7.37
2019-04-21T04:27:05.284Z,9.33
2019-04-21T04:29:24.111Z,10.30
2019-04-21T04:32:00.787Z,10.80
2019-04-21T04:37:12.430Z,8.80
2019-04-21T04:45:08.357Z,8.63
2019-04-21T04:55:01.249Z,11.90
2019-04-21T04:57:33.903Z,10.63
2019-04-21T05:00:14.328Z,7.60
2019-04-21T05:09:59.885Z,16.63
2019-04-21T05:12:30.941Z,23.17
2019-04-21T05:22:51.851Z,15.53
2019-04-21T05:24:58.414Z,16.43
2019-04-21T05:27:38.062Z,9.93
2019-04-21T05:30:23.371Z,10.07
2019-04-21T05:33:00.901Z,8.47
2019-04-21T05:35:49.288Z,7.23
2019-04-21T05:38:27.288Z,9.53
2019-04-21T05:40:55.226Z,9.13
2019-04-21T05:43:32.526Z,9.60
2019-04-21T05:46:10.463Z,7.97
2019-04-21T05:48:39.206Z,9.03
2019-04-21T05:51:08.850Z,9.60
2019-04-21T05:53:50.546Z,27.47
2019-04-21T05:56:17.333Z,99.60
2019-04-21T05:58:50.926Z,117.77
2019-04-21T06:01:28.527Z,59.73
2019-04-21T06:06:26.423Z,33.77
2019-04-21T06:08:52.642Z,21.70
2019-04-21T06:11:29.015Z,11.60
2019-04-21T06:16:36.495Z,7.57
2019-04-21T06:19:29.402Z,9.93
2019-04-21T06:21:33.170Z,8.07
2019-04-21T06:24:05.212Z,6.90
2019-04-21T06:26:54.731Z,11.70
2019-04-21T06:29:10.166Z,7.77
2019-04-21T06:34:11.143Z,10.37
2019-04-21T06:39:28.048Z,9.75
2019-04-21T06:41:49.058Z,7.95
2019-04-21T06:44:20.344Z,12.95
2019-04-21T06:46:55.178Z,7.80
2019-04-21T06:49:28.104Z,7.10
2019-04-21T06:52:11.417Z,6.25
2019-04-21T06:54:34.206Z,6.78
2019-04-21T06:56:58.416Z,6.08
2019-04-21T06:59:32.004Z,6.22
2019-04-21T07:07:05.610Z,6.05
2019-04-21T07:09:36.416Z,6.33
2019-04-21T07:12:06.384Z,8.05
2019-04-21T07:14:53.309Z,5.33
2019-04-21T07:17:15.046Z,6.17
2019-04-21T07:22:12.719Z,5.85
2019-04-21T07:24:46.273Z,8.45
2019-04-21T07:27:20.629Z,6.53
2019-04-21T07:29:47.473Z,5.75
2019-04-21T07:32:15.352Z,6.53
2019-04-21T07:34:51.571Z,6.40
2019-04-21T07:37:17.374Z,6.12
2019-04-21T07:39:52.778Z,6.22
2019-04-21T07:42:17.442Z,7.20
2019-04-21T07:44:47.336Z,7.20
2019-04-21T07:47:26.757Z,7.35
2019-04-21T07:50:22.771Z,6.33
2019-04-21T07:52:50.510Z,7.83
2019-04-21T07:57:45.695Z,7.50
2019-04-21T08:02:54.424Z,6.30
2019-04-21T08:05:37.740Z,6.22
2019-04-21T08:07:57.094Z,6.30
2019-04-21T08:10:21.272Z,8.60
2019-04-21T08:12:58.298Z,8.18
2019-04-21T08:15:36.523Z,7.37
2019-04-21T08:17:59.606Z,7.55
2019-04-21T08:20:28.518Z,6.17
2019-04-21T08:23:04.946Z,7.45
2019-04-21T08:25:43.631Z,6.37
2019-04-21T08:28:05.297Z,7.78
2019-04-21T08:30:36.521Z,9.65
2019-04-21T08:33:16.161Z,7.70
2019-04-21T08:36:04.756Z,6.70
2019-04-21T08:38:13.888Z,7.10
2019-04-21T08:43:21.677Z,7.28
2019-04-21T08:45:49.764Z,7.50
2019-04-21T08:48:16.926Z,7.37
2019-04-21T08:50:58.655Z,7.87
2019-04-21T08:53:19.755Z,6.92
2019-04-21T08:56:18.485Z,6.83
2019-04-21T08:58:53.024Z,5.70
2019-04-21T09:01:43.061Z,6.12
2019-04-21T09:04:13.106Z,6.10
2019-04-21T09:07:05.329Z,7.00
2019-04-21T09:09:16.806Z,5.25
2019-04-21T09:11:47.165Z,8.80
2019-04-21T09:14:20.681Z,6.55
2019-04-21T09:16:47.537Z,5.35
2019-04-21T09:19:34.037Z,5.85
2019-04-21T09:21:57.818Z,8.28
2019-04-21T09:24:24.631Z,5.95
2019-04-21T09:26:53.671Z,6.67
2019-04-21T09:29:17.221Z,4.37
2019-04-21T09:31:41.785Z,5.72
2019-04-21T09:34:14.275Z,6.20
2019-04-21T09:36:46.735Z,4.15
2019-04-21T09:39:18.393Z,7.30
2019-04-21T09:41:45.014Z,6.47
2019-04-21T09:44:22.078Z,5.50
2019-04-21T09:46:50.737Z,5.80
2019-04-21T09:49:22.485Z,7.00
2019-04-21T09:51:48.369Z,4.30
2019-04-21T09:54:24.805Z,5.83
2019-04-21T09:56:54.971Z,3.77
2019-04-21T09:59:28.219Z,3.30
2019-04-21T10:02:05.642Z,7.50
2019-04-21T10:04:24.037Z,4.78
2019-04-21T10:06:54.437Z,4.12
2019-04-21T10:09:24.390Z,9.18
2019-04-21T10:11:54.886Z,4.25
2019-04-21T10:14:24.572Z,5.47
2019-04-21T10:17:13.246Z,4.12
2019-04-21T10:19:43.841Z,3.90
2019-04-21T10:22:14.830Z,4.75
2019-04-21T10:25:06.768Z,5.45
2019-04-21T10:27:36.951Z,3.92
2019-04-21T10:30:08.298Z,5.22
2019-04-21T10:32:38.590Z,5.95
2019-04-21T10:35:08.618Z,4.90
2019-04-21T10:37:49.893Z,5.78
2019-04-21T10:40:10.026Z,6.37
2019-04-21T10:42:40.431Z,5.05
2019-04-21T10:45:10.890Z,7.40
2019-04-21T10:47:41.024Z,6.15
2019-04-21T10:50:11.823Z,6.53
2019-04-21T10:53:20.740Z,5.28
2019-04-21T10:56:06.099Z,8.18
2019-04-21T10:58:34.174Z,7.62
2019-04-21T11:01:12.735Z,6.78
2019-04-21T11:03:53.147Z,7.97
2019-04-21T11:06:24.346Z,6.62
2019-04-21T11:08:55.718Z,6.95
2019-04-21T11:11:25.914Z,5.42
2019-04-21T11:13:56.814Z,6.33
2019-04-21T11:16:26.888Z,6.35
2019-04-21T11:18:57.798Z,10.00
2019-04-21T11:21:27.525Z,7.55
2019-04-21T11:23:58.327Z,7.75
2019-04-21T11:26:27.959Z,6.45
2019-04-21T11:28:58.904Z,7.60
2019-04-21T11:31:29.248Z,11.12
2019-04-21T11:33:58.973Z,11.05
2019-04-21T11:36:29.216Z,10.23
2019-04-21T11:39:31.620Z,4.62
2019-04-21T11:41:52.254Z,6.17
2019-04-21T11:44:24.645Z,6.97
2019-04-21T11:46:54.287Z,5.22
2019-04-21T11:49:24.552Z,7.75
2019-04-21T11:51:56.394Z,6.65
2019-04-21T11:54:26.787Z,6.35
2019-04-21T11:56:56.903Z,7.67
2019-04-21T11:59:27.903Z,7.00
2019-04-21T12:01:57.559Z,6.72
2019-04-21T12:04:27.513Z,7.20
2019-04-21T12:06:57.923Z,7.40
2019-04-21T12:09:27.746Z,5.87
2019-04-21T12:11:57.324Z,8.30
2019-04-21T12:14:27.980Z,6.97
2019-04-21T12:16:57.664Z,7.67
2019-04-21T12:19:30.550Z,6.55
2019-04-21T12:22:08.803Z,5.87
2019-04-21T12:24:36.213Z,6.15
2019-04-21T12:27:05.948Z,5.87
2019-04-21T12:29:35.632Z,6.60
2019-04-21T12:32:24.222Z,5.70
2019-04-21T12:34:55.239Z,8.48
2019-04-21T12:37:25.096Z,6.30
2019-04-21T12:39:54.821Z,5.90
2019-04-21T12:42:24.866Z,5.58
2019-04-21T12:44:55.120Z,5.90
2019-04-21T12:47:25.854Z,5.05
2019-04-21T12:49:56.913Z,8.40
2019-04-21T12:52:27.373Z,10.58
2019-04-21T12:54:57.593Z,6.08
2019-04-21T12:57:28.705Z,6.55
2019-04-21T12:59:58.426Z,8.33
2019-04-21T13:02:27.940Z,5.33
2019-04-21T13:04:57.810Z,8.20
2019-04-21T13:07:27.747Z,7.20
2019-04-21T13:09:58.080Z,7.37
2019-04-21T13:12:28.896Z,8.45
2019-04-21T13:14:59.578Z,6.67
2019-04-21T13:17:31.004Z,7.95
2019-04-21T13:20:01.225Z,6.60
2019-04-21T13:22:31.999Z,5.12
2019-04-21T13:25:02.390Z,6.30
2019-04-21T13:27:32.250Z,7.67
2019-04-21T13:30:02.209Z,6.37
2019-04-21T13:32:33.109Z,7.08
2019-04-21T13:35:03.314Z,7.20
2019-04-21T13:37:33.414Z,10.40
2019-04-21T13:40:45.045Z,6.87
2019-04-21T13:43:02.871Z,7.55
2019-04-21T13:45:32.205Z,6.97
2019-04-21T13:48:04.436Z,6.97
2019-04-21T13:50:35.299Z,6.55
2019-04-21T13:53:05.035Z,7.10
2019-04-21T13:55:36.887Z,5.40
2019-04-21T13:58:06.375Z,6.78
2019-04-21T14:00:36.027Z,5.10
2019-04-21T14:03:06.946Z,8.10
2019-04-21T14:05:38.122Z,7.40
2019-04-21T14:08:09.153Z,6.62
2019-04-21T14:10:41.816Z,7.62
2019-04-21T14:13:12.156Z,5.47
2019-04-21T14:15:42.088Z,5.62
2019-04-21T14:18:13.073Z,5.67
2019-04-21T14:20:42.966Z,5.28
2019-04-21T14:23:22.472Z,6.05
2019-04-21T14:25:43.899Z,4.30
2019-04-21T14:28:14.196Z,4.87
2019-04-21T14:30:46.031Z,5.35
2019-04-21T14:33:16.153Z,4.72
2019-04-21T14:35:47.022Z,4.72
2019-04-21T14:38:16.727Z,7.55
2019-04-21T14:40:46.258Z,5.20
2019-04-21T14:43:16.467Z,6.65
2019-04-21T14:46:06.381Z,8.75
2019-04-21T14:48:54.963Z,7.25
2019-04-21T14:51:52.949Z,5.25
2019-04-21T14:54:42.662Z,6.58
2019-04-21T14:57:13.481Z,5.20
2019-04-21T14:59:43.117Z,4.35
2019-04-21T15:02:14.344Z,6.55
2019-04-21T15:04:43.999Z,7.22
2019-04-21T15:07:13.522Z,5.00
2019-04-21T15:09:44.599Z,4.65
2019-04-21T15:12:14.218Z,6.70
2019-04-21T15:14:44.153Z,6.10
2019-04-21T15:17:16.333Z,9.43
2019-04-21T15:19:50.923Z,7.83
2019-04-21T15:22:16.467Z,7.17
2019-04-21T15:24:46.046Z,6.12
2019-04-21T15:27:16.787Z,6.92
2019-04-21T15:29:46.839Z,4.78
2019-04-21T15:32:16.901Z,6.33
2019-04-21T15:34:47.730Z,7.20
2019-04-21T15:37:17.873Z,5.55
2019-04-21T15:39:48.753Z,4.83
2019-04-21T15:42:18.644Z,5.72
2019-04-21T15:44:48.480Z,4.53
2019-04-21T15:47:18.101Z,4.95
2019-04-21T15:50:03.661Z,6.20
2019-04-21T15:52:29.803Z,4.97
2019-04-21T15:55:12.328Z,7.60
2019-04-21T15:58:04.819Z,4.10
2019-04-21T16:00:40.815Z,6.28
2019-04-21T16:03:10.851Z,5.58
2019-04-21T16:05:40.626Z,7.67
2019-04-21T16:08:10.362Z,6.87
2019-04-21T16:10:47.142Z,4.80
2019-04-21T16:13:11.825Z,4.33
2019-04-21T16:15:41.415Z,5.62
2019-04-21T16:18:12.167Z,6.95
2019-04-21T16:20:41.899Z,5.08
2019-04-21T16:23:12.811Z,4.72
2019-04-21T16:25:44.309Z,5.20
2019-04-21T16:28:15.340Z,3.85
2019-04-21T16:30:52.122Z,7.22
2019-04-21T16:33:23.147Z,4.25
2019-04-21T16:35:53.772Z,3.55
2019-04-21T16:38:23.669Z,3.67
2019-04-21T16:40:58.235Z,3.45
2019-04-21T16:43:24.969Z,7.83
2019-04-21T16:45:57.466Z,3.92
2019-04-21T16:48:27.340Z,4.97
2019-04-21T16:50:57.496Z,3.80
2019-04-21T16:53:35.348Z,5.12
2019-04-21T16:56:11.000Z,6.67
2019-04-21T16:58:48.315Z,4.70
2019-04-21T17:01:24.227Z,3.20
2019-04-21T17:03:54.680Z,6.60
2019-04-21T17:06:24.959Z,3.80
2019-04-21T17:08:54.716Z,3.37
2019-04-21T17:11:29.458Z,3.90
2019-04-21T17:13:56.549Z,7.80
2019-04-21T17:16:48.251Z,5.87
2019-04-21T17:19:09.157Z,5.70
2019-04-21T17:21:30.094Z,3.47
2019-04-21T17:23:59.694Z,5.42
2019-04-21T17:26:29.222Z,7.00
2019-04-21T17:28:58.861Z,4.22
2019-04-21T17:31:28.818Z,5.25
2019-04-21T17:34:06.346Z,7.33
2019-04-21T17:36:29.625Z,3.92
2019-04-21T17:39:00.131Z,4.83
2019-04-21T17:41:36.431Z,4.17
2019-04-21T17:44:02.429Z,3.20
2019-04-21T17:46:40.785Z,3.85
2019-04-21T17:49:03.286Z,3.70
2019-04-21T17:51:54.602Z,3.67
2019-04-21T17:54:35.682Z,6.60
2019-04-21T17:57:24.577Z,4.67
2019-04-21T17:59:56.890Z,5.08
2019-04-21T18:02:22.947Z,3.62
2019-04-21T18:04:58.889Z,6.05
2019-04-21T18:07:27.333Z,7.55
2019-04-21T18:10:04.352Z,4.37
2019-04-21T18:12:33.555Z,4.20
2019-04-21T18:15:01.417Z,9.18
2019-04-21T18:17:20.901Z,4.95
2019-04-21T18:19:51.836Z,5.00
2019-04-21T18:22:54.934Z,3.52
2019-04-21T18:25:40.326Z,5.83
2019-04-21T18:27:57.042Z,3.98
2019-04-21T18:30:40.717Z,5.25
2019-04-21T18:33:14.173Z,4.20
2019-04-21T18:36:02.282Z,5.47
2019-04-21T18:39:12.680Z,2.55
2019-04-21T18:41:42.704Z,7.15
2019-04-21T18:47:16.383Z,9.25
2019-04-21T18:49:43.731Z,19.20
2019-04-21T18:52:26.736Z,20.32
2019-04-21T18:55:01.433Z,16.30
2019-04-21T18:57:30.578Z,36.73
2019-04-21T18:59:53.298Z,31.07
2019-04-21T19:02:24.442Z,23.65
2019-04-21T19:05:00.206Z,16.87
2019-04-21T19:07:45.231Z,13.95
2019-04-21T19:13:16.001Z,20.10
2019-04-21T19:15:17.132Z,10.53
2019-04-21T19:18:24.086Z,9.95
2019-04-21T19:20:26.845Z,10.20
2019-04-21T19:22:47.677Z,9.18
2019-04-21T19:25:20.640Z,6.50
2019-04-21T19:27:51.634Z,12.40
2019-04-21T19:30:38.419Z,8.30
2019-04-21T19:32:58.369Z,7.55
2019-04-21T19:35:14.939Z,13.35
2019-04-21T19:37:54.003Z,9.88
2019-04-21T19:40:34.043Z,10.03
2019-04-21T19:43:00.948Z,8.20
2019-04-21T19:45:36.793Z,8.85
2019-04-21T19:48:15.321Z,5.55
2019-04-21T19:50:46.714Z,8.10
2019-04-21T19:53:07.467Z,6.00
2019-04-21T19:55:29.829Z,14.25
2019-04-21T19:58:00.856Z,7.78
2019-04-21T20:00:34.651Z,13.28
2019-04-21T20:03:04.429Z,8.43
2019-04-21T20:05:42.989Z,6.70
2019-04-21T20:08:22.202Z,11.28
2019-04-21T20:10:58.089Z,13.18
2019-04-21T20:13:42.906Z,14.20
2019-04-21T20:15:58.310Z,11.57
2019-04-21T20:18:21.242Z,13.78
2019-04-21T20:20:43.731Z,13.95
2019-04-21T20:23:16.943Z,16.35
2019-04-21T20:25:54.372Z,21.73
2019-04-21T20:28:33.134Z,22.35
2019-04-21T20:31:06.690Z,15.20
2019-04-21T20:36:15.000Z,17.48
2019-04-21T20:38:32.721Z,15.98
2019-04-21T20:41:02.210Z,20.90
2019-04-21T20:43:42.639Z,17.15
2019-04-21T20:46:12.267Z,15.35
2019-04-21T20:48:42.163Z,15.35
2019-04-21T20:51:18.313Z,11.73
2019-04-21T20:53:46.456Z,12.78
2019-04-21T20:56:12.986Z,12.07
2019-04-21T20:58:53.877Z,16.02
2019-04-21T21:01:30.800Z,12.07
2019-04-21T21:03:48.961Z,18.23
2019-04-21T21:06:21.717Z,15.98
2019-04-21T21:08:56.885Z,14.40
2019-04-21T21:11:26.143Z,12.50
2019-04-21T21:14:00.388Z,10.98
2019-04-21T21:16:35.075Z,17.32
2019-04-21T21:19:13.388Z,13.83
2019-04-21T21:21:29.537Z,17.10
2019-04-21T21:24:05.404Z,10.60
2019-04-21T21:26:36.906Z,17.50
2019-04-21T21:29:04.894Z,13.22
2019-04-21T21:31:41.477Z,11.57
2019-04-21T21:34:27.861Z,9.30
2019-04-21T21:37:08.652Z,12.00
2019-04-21T21:39:41.158Z,12.65
2019-04-21T21:41:55.173Z,11.12
2019-04-21T21:44:22.902Z,14.33
2019-04-21T21:47:00.471Z,12.05
2019-04-21T21:49:40.905Z,10.38
2019-04-21T21:52:06.703Z,11.35
2019-04-21T21:54:29.714Z,14.25
2019-04-21T21:57:00.558Z,11.40
2019-04-21T21:59:33.627Z,13.22
2019-04-21T22:02:03.162Z,20.92
2019-04-21T22:04:35.591Z,15.13
2019-04-21T22:07:11.195Z,20.85
2019-04-21T22:09:36.527Z,18.32
2019-04-21T22:12:10.992Z,17.45
2019-04-21T22:14:47.948Z,27.22
2019-04-21T22:17:31.537Z,17.73
2019-04-21T22:20:08.515Z,23.83
2019-04-21T22:22:32.761Z,23.83
2019-04-21T22:24:59.414Z,22.60
2019-04-21T22:27:21.475Z,21.97
2019-04-21T22:29:55.042Z,22.70
2019-04-21T22:32:27.534Z,34.38
2019-04-21T22:34:58.344Z,24.47
2019-04-21T22:37:39.141Z,24.15
2019-04-21T22:40:11.318Z,18.43
2019-04-21T22:42:33.097Z,20.02
2019-04-21T22:44:58.588Z,25.50
2019-04-21T22:47:32.598Z,36.17
2019-04-21T22:49:59.435Z,30.47
2019-04-21T22:52:30.502Z,35.87
2019-04-21T22:55:07.480Z,32.23
2019-04-21T22:57:36.509Z,41.40
2019-04-21T23:00:07.901Z,42.57
2019-04-21T23:02:36.788Z,55.37
2019-04-21T23:05:07.998Z,48.40
2019-04-21T23:07:44.141Z,58.37
2019-04-21T23:10:09.432Z,39.33
2019-04-21T23:12:42.105Z,47.53
2019-04-21T23:15:19.054Z,37.53
2019-04-21T23:18:04.757Z,33.90
2019-04-21T23:20:39.408Z,43.07
2019-04-21T23:23:14.966Z,41.97
2019-04-21T23:25:39.232Z,40.67
2019-04-21T23:28:09.243Z,29.83
2019-04-21T23:30:45.775Z,31.10
2019-04-21T23:32:59.667Z,30.87
2019-04-21T23:35:32.279Z,27.87
2019-04-21T23:38:01.595Z,22.47
2019-04-21T23:40:27.845Z,22.53
2019-04-21T23:43:00.064Z,18.80
2019-04-21T23:45:35.834Z,24.53
2019-04-21T23:48:15.652Z,24.03
2019-04-21T23:50:42.829Z,20.50
2019-04-21T23:53:03.615Z,26.00
2019-04-21T23:55:33.229Z,31.97
2019-04-21T23:58:08.801Z,31.83
